Time;durP1;ratioP1;P1;durP2;ratioP2;P2;SDS_P1;SDS_P2;PMS_P1;PMS_P2;Temp;Humidity;BMP_temperature;BMP_pressure;BME280_temperature;BME280_humidity;BME280_pressure;Samples;Min_cycle;Max_cycle;Signal;HPM_P1;HPM_P2
2023/03/10 00:00:25;;;;;;;40.50;34.60;;;;;20.00;97663.00;;;;2063695;28;20207;-69
2023/03/10 00:01:27;;;;;;;42.10;35.57;;;;;20.00;97662.00;;;;2063644;28;20211;-69
2023/03/10 00:02:29;;;;;;;37.15;32.85;;;;;20.00;97653.00;;;;2063528;28;20207;-69
2023/03/10 00:03:29;;;;;;;42.58;34.65;;;;;20.00;97653.00;;;;2063467;28;20702;-69
2023/03/10 00:04:29;;;;;;;38.77;33.47;;;;;20.00;97626.00;;;;2063633;28;20213;-69
2023/03/10 00:05:30;;;;;;;35.80;31.50;;;;;20.00;97653.00;;;;2054913;28;20207;-69
2023/03/10 00:06:32;;;;;;;36.87;32.53;;;;;20.00;97653.00;;;;2054860;28;20275;-69
2023/03/10 00:07:33;;;;;;;43.25;34.08;;;;;20.00;97649.00;;;;2063499;28;20586;-69
2023/03/10 00:08:33;;;;;;;38.03;30.77;;;;;20.00;97621.00;;;;2063327;28;20230;-69
2023/03/10 00:09:33;;;;;;;38.90;31.10;;;;;20.00;97614.00;;;;2063354;28;20206;-69
2023/03/10 00:10:34;;;;;;;35.13;30.03;;;;;20.00;97626.00;;;;2063546;28;20195;-69
2023/03/10 00:11:34;;;;;;;35.90;30.53;;;;;20.00;97633.00;;;;2063517;28;20211;-69
2023/03/10 00:12:34;;;;;;;33.50;29.90;;;;;20.00;97639.00;;;;2063348;28;20211;-69
2023/03/10 00:13:35;;;;;;;36.60;28.73;;;;;19.90;97638.00;;;;2055090;28;20639;-69
2023/03/10 00:14:35;;;;;;;32.63;28.43;;;;;20.00;97643.00;;;;2054908;28;20566;-69
2023/03/10 00:15:35;;;;;;;32.50;28.17;;;;;20.00;97620.00;;;;2063436;28;20678;-69
2023/03/10 00:16:36;;;;;;;31.80;25.87;;;;;19.90;97613.00;;;;2063199;28;20214;-69
2023/03/10 00:17:36;;;;;;;30.30;25.90;;;;;19.90;97611.00;;;;2063431;28;20246;-69
2023/03/10 00:18:36;;;;;;;28.50;24.83;;;;;20.00;97593.00;;;;2054344;28;20691;-69
2023/03/10 00:19:37;;;;;;;30.50;25.60;;;;;19.90;97622.00;;;;2054884;28;20671;-69
2023/03/10 00:20:37;;;;;;;29.70;25.93;;;;;19.90;97616.00;;;;2063430;28;20664;-69
2023/03/10 00:21:37;;;;;;;32.70;24.40;;;;;19.90;97619.00;;;;2063400;28;21240;-69
2023/03/10 00:22:38;;;;;;;28.50;24.50;;;;;20.00;97612.00;;;;2063503;28;20694;-69
2023/03/10 00:23:38;;;;;;;27.53;24.33;;;;;19.90;97606.00;;;;2063359;28;20678;-69
2023/03/10 00:24:38;;;;;;;29.47;25.03;;;;;19.90;97609.00;;;;2063557;28;20218;-69
2023/03/10 00:25:39;;;;;;;27.43;23.73;;;;;19.90;97605.00;;;;2063511;28;20330;-69
2023/03/10 00:26:39;;;;;;;25.83;22.10;;;;;19.90;97612.00;;;;2063279;28;20245;-69
2023/03/10 00:27:40;;;;;;;25.93;22.20;;;;;19.90;97607.00;;;;2063560;28;20216;-69
2023/03/10 00:28:40;;;;;;;30.97;25.50;;;;;19.90;97599.00;;;;2063287;28;20233;-69
2023/03/10 00:29:40;;;;;;;26.17;22.50;;;;;19.90;97604.00;;;;2063588;28;20223;-69
2023/03/10 00:30:41;;;;;;;27.50;23.17;;;;;19.90;97601.00;;;;2063486;28;20242;-69
2023/03/10 00:31:41;;;;;;;24.87;22.17;;;;;19.90;97599.00;;;;2063166;28;20223;-69
2023/03/10 00:32:41;;;;;;;26.10;23.00;;;;;19.90;97600.00;;;;2063458;28;20227;-69
2023/03/10 00:33:42;;;;;;;24.80;21.20;;;;;19.90;97606.00;;;;2063400;28;20241;-69
2023/03/10 00:34:42;;;;;;;23.80;20.70;;;;;19.90;97584.00;;;;2063561;28;20222;-69
2023/03/10 00:35:42;;;;;;;22.43;20.03;;;;;19.90;97604.00;;;;2063511;28;20242;-69
2023/03/10 00:36:43;;;;;;;24.27;19.80;;;;;19.90;97604.00;;;;2063098;28;20280;-69
2023/03/10 00:37:43;;;;;;;22.50;18.80;;;;;19.90;97603.00;;;;2063303;28;20214;-69
2023/03/10 00:38:44;;;;;;;23.97;19.33;;;;;19.90;97598.00;;;;2054190;28;20671;-69
2023/03/10 00:39:44;;;;;;;25.20;19.80;;;;;19.90;97602.00;;;;2047404;28;20208;-69
2023/03/10 00:40:44;;;;;;;22.30;18.73;;;;;19.90;97602.00;;;;2046968;28;20296;-68
2023/03/10 00:41:45;;;;;;;23.13;18.87;;;;;19.90;97604.00;;;;2054846;28;20595;-69
2023/03/10 00:42:45;;;;;;;22.60;18.70;;;;;19.90;97610.00;;;;2063220;28;20691;-69
2023/03/10 00:43:45;;;;;;;19.73;17.13;;;;;19.80;97592.00;;;;2054947;28;20806;-69
2023/03/10 00:44:46;;;;;;;22.77;18.07;;;;;19.80;97612.00;;;;2046692;28;20778;-69
2023/03/10 00:45:46;;;;;;;20.77;17.47;;;;;19.80;97610.00;;;;2054638;28;20226;-69
2023/03/10 00:46:47;;;;;;;19.77;17.67;;;;;19.80;97626.00;;;;2063386;28;20225;-69
2023/03/10 00:47:47;;;;;;;19.03;16.23;;;;;19.80;97613.00;;;;2063285;28;20219;-69
2023/03/10 00:48:47;;;;;;;19.80;16.80;;;;;19.80;97625.00;;;;2062939;28;20218;-70
2023/03/10 00:49:47;;;;;;;19.70;16.70;;;;;19.80;97626.00;;;;2063232;28;20584;-69
2023/03/10 00:50:48;;;;;;;18.60;15.87;;;;;19.80;97619.00;;;;2063292;28;20611;-69
2023/03/10 00:51:48;;;;;;;17.23;14.47;;;;;19.80;97629.00;;;;2063332;28;20581;-69
2023/03/10 00:52:50;;;;;;;17.10;14.70;;;;;19.80;97629.00;;;;2063021;28;20621;-69
2023/03/10 00:53:50;;;;;;;15.27;13.35;;;;;19.80;97616.00;;;;2071337;28;20221;-69
2023/03/10 00:54:50;;;;;;;17.70;14.33;;;;;19.80;97629.00;;;;2071367;28;20210;-69
2023/03/10 00:56:01;;;;;;;16.33;13.80;;;;;19.80;97626.00;;;;2071256;28;20245;-69
2023/03/10 00:57:02;;;;;;;15.73;13.43;;;;;19.80;97620.00;;;;2071236;28;20221;-69
2023/03/10 00:58:02;;;;;;;20.17;15.27;;;;;19.80;97623.00;;;;2054052;28;20223;-70
2023/03/10 00:59:03;;;;;;;21.03;14.33;;;;;19.80;97619.00;;;;2054564;28;20271;-70
2023/03/10 01:00:05;;;;;;;18.97;15.83;;;;;19.90;97617.00;;;;2071266;28;20297;-70
2023/03/10 01:01:25;;;;;;;20.85;15.65;;;;;19.90;97615.00;;;;2071376;28;20234;-71
2023/03/10 01:02:25;;;;;;;18.40;15.25;;;;;19.90;97623.00;;;;2070627;28;20218;-70
2023/03/10 01:03:26;;;;;;;19.33;15.07;;;;;19.90;97627.00;;;;2070949;28;20214;-71
2023/03/10 01:04:26;;;;;;;16.17;13.90;;;;;19.90;97614.00;;;;2071374;28;20265;-70
2023/03/10 01:05:27;;;;;;;17.00;14.67;;;;;19.90;97627.00;;;;2071476;28;20312;-70
2023/03/10 01:06:28;;;;;;;16.70;13.80;;;;;20.00;97638.00;;;;2071346;28;20210;-71
2023/03/10 01:07:28;;;;;;;19.07;14.03;;;;;20.00;97626.00;;;;2070781;28;20237;-71
2023/03/10 01:08:28;;;;;;;16.33;14.43;;;;;20.00;97626.00;;;;2070991;28;20218;-72
2023/03/10 01:09:29;;;;;;;18.10;14.93;;;;;20.00;97631.00;;;;2071351;28;20267;-71
2023/03/10 01:10:29;;;;;;;14.93;13.37;;;;;20.00;97632.00;;;;2070867;28;20218;-71
2023/03/10 01:11:29;;;;;;;15.70;13.27;;;;;20.00;97614.00;;;;2071379;28;20277;-71
2023/03/10 01:12:30;;;;;;;16.87;12.73;;;;;20.00;97602.00;;;;2062566;28;20242;-71
2023/03/10 01:13:30;;;;;;;15.00;12.37;;;;;20.00;97624.00;;;;2062480;28;20211;-71
2023/03/10 01:14:31;;;;;;;14.63;12.50;;;;;20.00;97627.00;;;;2071254;28;20242;-72
2023/03/10 01:15:31;;;;;;;14.83;12.50;;;;;20.00;97617.00;;;;2071036;28;20214;-71
2023/03/10 01:16:31;;;;;;;13.23;11.73;;;;;20.00;97632.00;;;;2071563;28;20222;-71
2023/03/10 01:17:32;;;;;;;13.13;11.30;;;;;20.00;97635.00;;;;2071306;28;20301;-71
2023/03/10 01:18:32;;;;;;;14.10;11.40;;;;;20.00;97638.00;;;;2071019;28;20288;-71
2023/03/10 01:19:32;;;;;;;12.83;11.27;;;;;20.00;97626.00;;;;2071437;28;20233;-71
2023/03/10 01:20:33;;;;;;;14.43;12.27;;;;;20.00;97624.00;;;;2071406;28;20214;-71
2023/03/10 01:21:35;;;;;;;11.77;10.50;;;;;20.00;97626.00;;;;2062537;28;20214;-71
2023/03/10 01:22:35;;;;;;;12.48;11.18;;;;;20.00;97632.00;;;;2062733;28;20215;-71
2023/03/10 01:23:35;;;;;;;12.20;10.83;;;;;20.00;97631.00;;;;2071213;28;20631;-71
2023/03/10 01:24:36;;;;;;;14.83;11.80;;;;;20.00;97624.00;;;;2071340;28;20681;-71
2023/03/10 01:25:36;;;;;;;12.10;10.17;;;;;20.00;97627.00;;;;2071231;28;20728;-72
2023/03/10 01:26:36;;;;;;;11.60;10.33;;;;;20.00;97636.00;;;;2071275;28;20256;-71
2023/03/10 01:27:37;;;;;;;11.70;10.50;;;;;20.00;97646.00;;;;2071225;28;20214;-71
2023/03/10 01:28:37;;;;;;;12.93;10.73;;;;;20.00;97640.00;;;;2070951;28;20210;-71
2023/03/10 01:29:37;;;;;;;12.20;10.70;;;;;20.00;97636.00;;;;2062717;28;20238;-71
2023/03/10 01:30:38;;;;;;;11.90;10.00;;;;;20.00;97639.00;;;;2062591;28;20233;-71
2023/03/10 01:31:40;;;;;;;12.10;10.73;;;;;20.00;97646.00;;;;2071293;28;20586;-71
2023/03/10 01:32:40;;;;;;;10.75;9.00;;;;;20.00;97649.00;;;;2062298;28;20301;-71
2023/03/10 01:33:41;;;;;;;12.60;9.20;;;;;20.00;97638.00;;;;2062762;28;20215;-76
2023/03/10 01:34:42;;;;;;;13.23;10.10;;;;;20.10;97645.00;;;;2071431;28;20214;-72
2023/03/10 01:35:42;;;;;;;13.37;8.90;;;;;20.10;97633.00;;;;2071194;28;21081;-70
2023/03/10 01:36:42;;;;;;;10.63;9.23;;;;;20.00;97649.00;;;;2069362;28;20698;-69
2023/03/10 01:37:43;;;;;;;9.47;8.43;;;;;20.00;97637.00;;;;2070892;28;20219;-69
2023/03/10 01:38:43;;;;;;;9.10;8.03;;;;;20.00;97640.00;;;;2070807;28;20214;-70
2023/03/10 01:39:43;;;;;;;9.17;8.20;;;;;19.90;97644.00;;;;2070314;28;21394;-70
2023/03/10 01:40:48;;;;;;;12.07;7.80;;;;;20.00;97616.00;;;;2071064;28;20255;-70
2023/03/10 01:41:48;;;;;;;9.55;7.95;;;;;20.00;97642.00;;;;2062192;28;20274;-69
2023/03/10 01:42:49;;;;;;;9.10;7.67;;;;;19.90;97634.00;;;;2062451;28;20285;-69
2023/03/10 01:43:50;;;;;;;9.60;7.53;;;;;19.90;97647.00;;;;2070904;28;20217;-69
2023/03/10 01:45:07;;;;;;;8.65;7.70;;;;;19.90;97641.00;;;;2062435;28;20679;-70
2023/03/10 01:46:26;;;;;;;8.85;7.32;;;;;19.90;97640.00;;;;2064633;28;20225;-70
2023/03/10 01:47:26;;;;;;;9.90;7.10;;;;;19.90;97645.00;;;;2070955;28;20209;-69
2023/03/10 01:48:27;;;;;;;11.83;7.67;;;;;19.90;97641.00;;;;2070707;28;20206;-70
2023/03/10 01:49:52;;;;;;;8.05;7.20;;;;;19.90;97637.00;;;;2062304;28;20651;-70
2023/03/10 01:50:53;;;;;;;9.23;8.27;;;;;19.90;97645.00;;;;2061685;28;20219;-70
2023/03/10 01:52:09;;;;;;;9.50;8.50;;;;;19.90;97620.00;;;;2062317;28;20211;-69
2023/03/10 01:53:10;;;;;;;10.38;8.68;;;;;19.90;97637.00;;;;2058804;28;20242;-69
2023/03/10 01:54:16;;;;;;;11.20;8.97;;;;;19.90;97615.00;;;;2053576;28;20303;-70
2023/03/10 01:55:18;;;;;;;11.02;9.82;;;;;19.90;97641.00;;;;2053594;28;20710;-70
2023/03/10 01:56:18;;;;;;;10.98;9.55;;;;;19.90;97634.00;;;;2039489;28;20221;-70
2023/03/10 01:57:23;;;;;;;12.30;11.00;;;;;19.90;97635.00;;;;2054143;28;20247;-69
2023/03/10 01:58:25;;;;;;;14.55;12.07;;;;;19.90;97641.00;;;;2045497;29;20283;-70
2023/03/10 01:59:25;;;;;;;14.00;12.20;;;;;19.80;97623.00;;;;2038732;28;20209;-70
2023/03/10 02:00:26;;;;;;;17.57;13.77;;;;;19.90;97627.00;;;;2046524;28;20427;-70
2023/03/10 02:01:27;;;;;;;17.30;14.70;;;;;19.80;97637.00;;;;2054173;28;20222;-70
2023/03/10 02:02:27;;;;;;;15.47;13.23;;;;;19.80;97629.00;;;;2062965;28;20454;-69
2023/03/10 02:03:39;;;;;;;16.03;13.57;;;;;19.80;97635.00;;;;2046220;29;20216;-70
2023/03/10 02:04:42;;;;;;;18.05;13.95;;;;;19.80;97634.00;;;;2047890;28;20224;-70
2023/03/10 02:05:48;;;;;;;17.95;14.52;;;;;19.80;97650.00;;;;2054282;28;21029;-69
2023/03/10 02:06:48;;;;;;;19.38;15.50;;;;;19.80;97637.00;;;;2045985;28;20224;-70
2023/03/10 02:07:48;;;;;;;21.90;16.27;;;;;19.90;97628.00;;;;2038267;29;20229;-70
2023/03/10 02:08:50;;;;;;;23.70;18.47;;;;;19.80;97633.00;;;;2046050;29;20227;-69
2023/03/10 02:09:51;;;;;;;20.20;17.35;;;;;19.80;97636.00;;;;2038313;29;20268;-70
2023/03/10 02:10:51;;;;;;;25.40;19.53;;;;;19.80;97628.00;;;;2045721;28;20767;-69
2023/03/10 02:11:51;;;;;;;23.87;19.67;;;;;19.80;97635.00;;;;2054249;28;20778;-70
2023/03/10 02:12:52;;;;;;;27.23;21.80;;;;;19.80;97626.00;;;;2053756;28;20279;-70
2023/03/10 02:13:52;;;;;;;28.97;21.30;;;;;19.80;97641.00;;;;2063382;28;20207;-70
2023/03/10 02:14:52;;;;;;;29.27;23.30;;;;;19.80;97640.00;;;;2047707;29;20204;-71
2023/03/10 02:15:53;;;;;;;30.40;23.53;;;;;19.80;97618.00;;;;2047776;29;20213;-70
2023/03/10 02:16:53;;;;;;;28.50;23.07;;;;;19.80;97625.00;;;;2055773;28;20259;-70
2023/03/10 02:17:53;;;;;;;30.20;24.60;;;;;19.80;97612.00;;;;2055437;28;20289;-70
2023/03/10 02:18:54;;;;;;;36.50;27.07;;;;;19.80;97625.00;;;;2047453;29;20339;-70
2023/03/10 02:19:57;;;;;;;42.03;31.13;;;;;19.80;97624.00;;;;2047819;28;20232;-70
2023/03/10 02:21:04;;;;;;;44.85;31.63;;;;;19.70;97621.00;;;;2064466;28;20289;-70
2023/03/10 02:22:06;;;;;;;41.45;32.83;;;;;19.80;97598.00;;;;2064410;28;20222;-70
2023/03/10 02:23:07;;;;;;;49.50;37.55;;;;;19.70;97626.00;;;;2047820;29;20248;-70
2023/03/10 02:24:13;;;;;;;56.03;39.55;;;;;19.70;97629.00;;;;2047570;28;20215;-70
2023/03/10 02:25:19;;;;;;;48.50;37.33;;;;;19.80;97629.00;;;;2056568;28;20711;-70
2023/03/10 02:26:51;;;;;;;55.60;38.65;;;;;19.80;97627.00;;;;2064460;28;20229;-70
2023/03/10 02:27:52;;;;;;;52.08;40.38;;;;;19.80;97626.00;;;;2063683;28;20211;-70
2023/03/10 02:28:53;;;;;;;53.90;40.57;;;;;19.80;97624.00;;;;2064218;28;20206;-70
2023/03/10 02:30:30;;;;;;;55.40;39.47;;;;;19.70;97626.00;;;;2064273;28;20219;-70
2023/03/10 02:31:30;;;;;;;58.40;41.65;;;;;19.70;97629.00;;;;2055329;28;20214;-70
2023/03/10 02:32:32;;;;;;;49.50;37.97;;;;;19.70;97627.00;;;;2047783;29;20208;-70
2023/03/10 02:33:33;;;;;;;55.15;38.97;;;;;19.70;97623.00;;;;2055604;28;20207;-70
2023/03/10 02:34:33;;;;;;;55.17;41.13;;;;;19.70;97627.00;;;;2055768;28;20223;-69
2023/03/10 02:35:33;;;;;;;49.23;37.23;;;;;19.70;97619.00;;;;2055619;28;20319;-70
2023/03/10 02:36:34;;;;;;;54.20;39.30;;;;;19.70;97617.00;;;;2064101;28;20211;-70
2023/03/10 02:37:34;;;;;;;55.53;37.97;;;;;19.70;97623.00;;;;2064326;28;20206;-70
2023/03/10 02:38:35;;;;;;;51.27;37.03;;;;;19.70;97623.00;;;;2064075;28;20309;-70
2023/03/10 02:39:35;;;;;;;50.83;37.73;;;;;19.70;97630.00;;;;2064362;28;20246;-70
2023/03/10 02:40:39;;;;;;;46.43;34.83;;;;;19.70;97621.00;;;;2064205;28;20227;-70
2023/03/10 02:41:39;;;;;;;46.03;35.60;;;;;19.70;97620.00;;;;2063961;28;20214;-70
2023/03/10 02:42:39;;;;;;;43.43;34.70;;;;;19.70;97584.00;;;;2055703;28;20212;-70
2023/03/10 02:43:39;;;;;;;38.83;31.13;;;;;19.70;97620.00;;;;2055620;28;20235;-70
2023/03/10 02:44:40;;;;;;;43.40;32.67;;;;;19.70;97609.00;;;;2055576;28;20230;-70
2023/03/10 02:45:41;;;;;;;41.30;31.73;;;;;19.70;97619.00;;;;2055739;28;20223;-70
2023/03/10 02:46:42;;;;;;;41.70;31.33;;;;;19.70;97613.00;;;;2055429;28;20231;-70
2023/03/10 02:47:42;;;;;;;42.70;32.10;;;;;19.70;97621.00;;;;2055526;28;20264;-70
2023/03/10 02:48:42;;;;;;;39.40;31.77;;;;;19.70;97613.00;;;;2063778;28;20219;-69
2023/03/10 02:49:43;;;;;;;43.13;31.57;;;;;19.70;97619.00;;;;2064244;28;20215;-70
2023/03/10 02:50:43;;;;;;;38.53;30.40;;;;;19.70;97619.00;;;;2064287;28;20211;-70
2023/03/10 02:51:44;;;;;;;37.77;29.97;;;;;19.70;97625.00;;;;2055556;28;20259;-70
2023/03/10 02:52:55;;;;;;;41.42;30.33;;;;;19.70;97612.00;;;;2055850;28;20623;-70
2023/03/10 02:53:55;;;;;;;36.05;29.00;;;;;19.70;97617.00;;;;2063120;28;20269;-70
2023/03/10 02:54:56;;;;;;;37.63;28.60;;;;;19.70;97619.00;;;;2063574;28;20289;-70
2023/03/10 02:55:56;;;;;;;38.23;28.47;;;;;19.70;97615.00;;;;2072144;28;20292;-70
2023/03/10 02:56:57;;;;;;;34.03;25.90;;;;;19.70;97614.00;;;;2072043;28;20218;-70
2023/03/10 02:58:01;;;;;;;33.20;25.77;;;;;19.70;97611.00;;;;2071714;28;20244;-70
2023/03/10 02:59:01;;;;;;;33.13;24.95;;;;;19.70;97618.00;;;;2072262;28;20215;-70
2023/03/10 03:00:04;;;;;;;32.40;25.20;;;;;19.70;97607.00;;;;2072324;28;20203;-70
2023/03/10 03:01:04;;;;;;;29.52;24.00;;;;;19.60;97602.00;;;;2072307;28;20203;-70
2023/03/10 03:02:04;;;;;;;31.30;24.00;;;;;19.70;97610.00;;;;2072358;28;20240;-70
2023/03/10 03:03:05;;;;;;;32.03;24.87;;;;;19.60;97607.00;;;;2072112;28;20213;-70
2023/03/10 03:04:05;;;;;;;28.93;22.77;;;;;19.60;97607.00;;;;2072141;28;20210;-70
2023/03/10 03:05:06;;;;;;;29.17;22.50;;;;;19.60;97604.00;;;;2072296;28;20707;-70
2023/03/10 03:06:06;;;;;;;31.33;23.90;;;;;19.70;97613.00;;;;2072332;28;20210;-70
2023/03/10 03:07:07;;;;;;;29.40;22.17;;;;;19.60;97606.00;;;;2072344;28;20457;-70
2023/03/10 03:08:07;;;;;;;25.23;20.43;;;;;19.60;97607.00;;;;2071840;28;20254;-70
2023/03/10 03:09:08;;;;;;;30.40;22.80;;;;;19.60;97612.00;;;;2072032;28;20210;-70
2023/03/10 03:10:09;;;;;;;27.40;21.43;;;;;19.70;97601.00;;;;2072156;28;20242;-70
2023/03/10 03:11:09;;;;;;;29.43;22.33;;;;;19.60;97610.00;;;;2072238;28;20277;-70
2023/03/10 03:12:09;;;;;;;26.37;21.77;;;;;19.60;97607.00;;;;2072294;28;20214;-70
2023/03/10 03:13:10;;;;;;;25.33;21.20;;;;;19.60;97607.00;;;;2072087;28;20829;-70
2023/03/10 03:14:10;;;;;;;27.40;21.43;;;;;19.60;97599.00;;;;2072077;28;20646;-70
2023/03/10 03:15:11;;;;;;;28.67;21.10;;;;;19.60;97596.00;;;;2072260;28;20233;-70
2023/03/10 03:16:12;;;;;;;26.37;20.03;;;;;19.60;97607.00;;;;2072189;28;20225;-70
2023/03/10 03:17:12;;;;;;;26.80;20.83;;;;;19.60;97596.00;;;;2072080;28;20234;-70
2023/03/10 03:18:13;;;;;;;24.67;19.27;;;;;19.60;97597.00;;;;2071609;28;20229;-70
2023/03/10 03:19:13;;;;;;;26.27;20.53;;;;;19.60;97592.00;;;;2072006;28;20665;-69
2023/03/10 03:20:13;;;;;;;23.00;17.97;;;;;19.60;97592.00;;;;2072093;28;20214;-70
2023/03/10 03:21:16;;;;;;;22.23;18.20;;;;;19.60;97593.00;;;;2072104;28;20214;-70
2023/03/10 03:22:16;;;;;;;24.50;17.95;;;;;19.60;97586.00;;;;2072141;28;20851;-70
2023/03/10 03:23:16;;;;;;;22.87;16.90;;;;;19.60;97605.00;;;;2072152;28;20224;-70
2023/03/10 03:24:17;;;;;;;23.03;17.07;;;;;19.60;97607.00;;;;2072128;28;20222;-70
2023/03/10 03:25:18;;;;;;;21.47;18.17;;;;;19.60;97597.00;;;;2071374;28;20222;-70
2023/03/10 03:26:20;;;;;;;20.67;17.13;;;;;19.60;97599.00;;;;2071457;28;20998;-70
2023/03/10 03:27:20;;;;;;;18.70;16.50;;;;;19.60;97600.00;;;;2071927;28;20217;-70
2023/03/10 03:28:21;;;;;;;19.50;16.20;;;;;19.60;97581.00;;;;2071865;28;20264;-70
2023/03/10 03:29:21;;;;;;;19.47;16.20;;;;;19.60;97593.00;;;;2071288;28;21354;-70
2023/03/10 03:30:23;;;;;;;20.30;16.13;;;;;19.60;97592.00;;;;2071901;28;20276;-70
2023/03/10 03:31:24;;;;;;;17.92;15.45;;;;;19.60;97594.00;;;;2071975;28;20215;-70
2023/03/10 03:32:24;;;;;;;19.13;16.10;;;;;19.60;97593.00;;;;2071978;28;20210;-70
2023/03/10 03:33:24;;;;;;;18.57;15.97;;;;;19.60;97593.00;;;;2072010;28;20210;-70
2023/03/10 03:34:25;;;;;;;18.73;14.17;;;;;19.60;97597.00;;;;2071996;28;20250;-70
2023/03/10 03:35:30;;;;;;;18.80;15.07;;;;;19.60;97597.00;;;;2072043;28;20302;-70
2023/03/10 03:36:30;;;;;;;17.77;14.38;;;;;19.60;97599.00;;;;2071700;28;20302;-70
2023/03/10 03:37:30;;;;;;;16.93;13.53;;;;;19.60;97594.00;;;;2072143;28;20308;-70
2023/03/10 03:38:31;;;;;;;16.27;14.33;;;;;19.60;97591.00;;;;2071633;28;20210;-70
2023/03/10 03:39:31;;;;;;;17.80;14.10;;;;;19.60;97592.00;;;;2071981;28;20222;-70
2023/03/10 03:40:32;;;;;;;16.30;12.97;;;;;19.60;97591.00;;;;2072030;28;20226;-70
2023/03/10 03:41:33;;;;;;;19.03;14.53;;;;;19.60;97600.00;;;;2071850;28;20217;-69
2023/03/10 03:42:33;;;;;;;17.73;13.93;;;;;19.60;97585.00;;;;2071996;28;20232;-70
2023/03/10 03:43:33;;;;;;;18.57;13.93;;;;;19.60;97596.00;;;;2071853;28;20213;-70
2023/03/10 03:44:34;;;;;;;18.90;13.43;;;;;19.60;97593.00;;;;2072093;28;20206;-70
2023/03/10 03:45:34;;;;;;;14.97;13.03;;;;;19.60;97594.00;;;;2072061;28;20718;-70
2023/03/10 03:46:34;;;;;;;12.80;10.77;;;;;19.60;97595.00;;;;2071780;28;20682;-70
2023/03/10 03:47:35;;;;;;;14.93;12.00;;;;;19.60;97592.00;;;;2071707;28;20210;-70
2023/03/10 03:48:35;;;;;;;15.70;10.50;;;;;19.60;97597.00;;;;2071518;28;20260;-70
2023/03/10 03:49:37;;;;;;;15.63;11.63;;;;;19.60;97588.00;;;;2071928;28;20241;-70
2023/03/10 03:50:37;;;;;;;14.65;11.63;;;;;19.60;97593.00;;;;2071620;28;20217;-70
2023/03/10 03:51:37;;;;;;;14.07;10.73;;;;;19.50;97592.00;;;;2071933;28;20206;-70
2023/03/10 03:52:38;;;;;;;13.87;10.87;;;;;19.60;97597.00;;;;2071838;28;20261;-70
2023/03/10 03:53:38;;;;;;;12.90;11.10;;;;;19.50;97593.00;;;;2064267;28;20237;-70
2023/03/10 03:54:39;;;;;;;14.17;11.03;;;;;19.60;97598.00;;;;2063662;28;20885;-70
2023/03/10 03:55:39;;;;;;;14.13;10.50;;;;;19.60;97601.00;;;;2063366;28;20706;-70
2023/03/10 03:56:39;;;;;;;12.37;9.83;;;;;19.60;97591.00;;;;2063377;28;20732;-70
2023/03/10 03:57:40;;;;;;;12.77;10.67;;;;;19.60;97597.00;;;;2063482;28;20285;-70
2023/03/10 03:58:40;;;;;;;13.57;10.23;;;;;19.50;97600.00;;;;2063226;28;20215;-70
2023/03/10 03:59:40;;;;;;;13.07;10.63;;;;;19.50;97584.00;;;;2063397;28;20305;-70
2023/03/10 04:00:41;;;;;;;13.40;9.70;;;;;19.60;97597.00;;;;2063228;28;20222;-70
2023/03/10 04:01:41;;;;;;;10.60;8.93;;;;;19.50;97599.00;;;;2063756;28;20663;-70
2023/03/10 04:02:42;;;;;;;11.33;9.40;;;;;19.50;97600.00;;;;2054896;28;20322;-71
2023/03/10 04:03:42;;;;;;;10.90;9.50;;;;;19.50;97599.00;;;;2054706;28;20216;-70
2023/03/10 04:04:42;;;;;;;12.03;9.10;;;;;19.50;97587.00;;;;2063700;28;20218;-70
2023/03/10 04:05:43;;;;;;;10.90;8.73;;;;;19.50;97586.00;;;;2063443;28;20682;-70
2023/03/10 04:06:43;;;;;;;9.93;8.40;;;;;19.50;97593.00;;;;2063390;28;20233;-70
2023/03/10 04:07:44;;;;;;;9.80;8.70;;;;;19.50;97576.00;;;;2063324;28;20230;-70
2023/03/10 04:08:44;;;;;;;10.10;9.00;;;;;19.50;97592.00;;;;2062961;28;20215;-70
2023/03/10 04:09:44;;;;;;;10.63;8.37;;;;;19.50;97593.00;;;;2063329;28;20235;-70
2023/03/10 04:10:52;;;;;;;12.07;8.87;;;;;19.50;97605.00;;;;2055047;28;20212;-70
2023/03/10 04:11:52;;;;;;;9.65;7.50;;;;;19.50;97591.00;;;;2055602;28;20222;-70
2023/03/10 04:12:53;;;;;;;9.93;7.80;;;;;19.50;97599.00;;;;2063479;28;20230;-70
2023/03/10 04:13:53;;;;;;;10.73;8.37;;;;;19.50;97591.00;;;;2063646;28;20218;-70
2023/03/10 04:14:53;;;;;;;10.67;8.33;;;;;19.50;97587.00;;;;2063413;28;20582;-70
2023/03/10 04:15:57;;;;;;;8.47;7.20;;;;;19.50;97583.00;;;;2063082;28;20599;-70
2023/03/10 04:16:57;;;;;;;10.30;8.20;;;;;19.50;97580.00;;;;2063279;28;20234;-69
2023/03/10 04:17:58;;;;;;;10.80;7.90;;;;;19.50;97588.00;;;;2062927;28;20221;-69
2023/03/10 04:18:58;;;;;;;8.97;7.73;;;;;19.50;97592.00;;;;2063406;28;20215;-69
2023/03/10 04:19:58;;;;;;;9.17;7.80;;;;;19.50;97590.00;;;;2063676;28;20235;-70
2023/03/10 04:20:59;;;;;;;9.50;7.43;;;;;19.50;97587.00;;;;2063286;28;20221;-69
2023/03/10 04:21:59;;;;;;;8.37;7.40;;;;;19.50;97593.00;;;;2063452;28;20215;-69
2023/03/10 04:23:00;;;;;;;8.67;7.37;;;;;19.50;97597.00;;;;2063433;28;20238;-69
2023/03/10 04:24:01;;;;;;;7.55;6.65;;;;;19.50;97593.00;;;;2063620;28;20318;-69
2023/03/10 04:25:02;;;;;;;8.53;7.00;;;;;19.50;97594.00;;;;2063422;28;20234;-69
2023/03/10 04:26:06;;;;;;;10.70;7.20;;;;;19.50;97600.00;;;;2054626;28;20215;-69
2023/03/10 04:27:08;;;;;;;8.98;7.47;;;;;19.50;97595.00;;;;2055187;28;20651;-69
2023/03/10 04:28:09;;;;;;;8.38;7.10;;;;;19.50;97592.00;;;;2054489;28;20226;-69
2023/03/10 04:29:09;;;;;;;6.88;6.05;;;;;19.50;97587.00;;;;2055061;28;20212;-69
2023/03/10 04:30:11;;;;;;;6.60;5.90;;;;;19.50;97584.00;;;;2054764;28;20579;-69
2023/03/10 04:31:14;;;;;;;8.35;6.82;;;;;19.50;97591.00;;;;2054955;28;20233;-69
2023/03/10 04:32:14;;;;;;;8.15;6.63;;;;;19.50;97582.00;;;;2063491;28;20600;-69
2023/03/10 04:33:15;;;;;;;8.60;6.10;;;;;19.50;97580.00;;;;2063495;28;20250;-70
2023/03/10 04:34:15;;;;;;;8.37;6.60;;;;;19.50;97581.00;;;;2063545;28;20223;-69
2023/03/10 04:35:15;;;;;;;6.87;5.77;;;;;19.50;97566.00;;;;2063610;28;20223;-69
2023/03/10 04:36:17;;;;;;;9.63;6.80;;;;;19.50;97574.00;;;;2063259;28;20772;-69
2023/03/10 04:37:19;;;;;;;7.35;5.78;;;;;19.50;97582.00;;;;2063242;28;20803;-69
2023/03/10 04:38:21;;;;;;;7.75;6.20;;;;;19.50;97583.00;;;;2062548;28;20226;-69
2023/03/10 04:39:22;;;;;;;6.45;5.30;;;;;19.50;97581.00;;;;2063146;28;20576;-69
2023/03/10 04:40:22;;;;;;;7.93;5.77;;;;;19.50;97587.00;;;;2063542;28;20219;-70
2023/03/10 04:41:22;;;;;;;7.70;5.50;;;;;19.50;97583.00;;;;2063566;28;20242;-69
2023/03/10 04:42:23;;;;;;;9.70;6.03;;;;;19.50;97583.00;;;;2063252;28;20630;-69
2023/03/10 04:43:24;;;;;;;8.40;5.20;;;;;19.50;97587.00;;;;2063310;28;20583;-69
2023/03/10 04:44:24;;;;;;;7.23;5.27;;;;;19.50;97581.00;;;;2063512;28;20280;-70
2023/03/10 04:45:24;;;;;;;6.93;5.43;;;;;19.50;97582.00;;;;2063568;28;20442;-70
2023/03/10 04:46:25;;;;;;;7.10;5.50;;;;;19.50;97586.00;;;;2063484;28;20296;-70
2023/03/10 04:47:25;;;;;;;7.03;5.23;;;;;19.40;97575.00;;;;2063444;28;20217;-69
2023/03/10 04:48:25;;;;;;;5.80;4.40;;;;;19.50;97582.00;;;;2062946;28;20218;-69
2023/03/10 04:49:26;;;;;;;5.93;4.97;;;;;19.50;97578.00;;;;2063475;28;20229;-69
2023/03/10 04:50:26;;;;;;;5.73;4.70;;;;;19.50;97583.00;;;;2063366;28;20265;-69
2023/03/10 04:51:27;;;;;;;5.83;4.43;;;;;19.50;97578.00;;;;2054755;28;20216;-70
2023/03/10 04:52:27;;;;;;;7.20;4.83;;;;;19.50;97573.00;;;;2054814;28;20269;-69
2023/03/10 04:53:28;;;;;;;6.70;4.40;;;;;19.40;97572.00;;;;2069064;28;20218;-70
2023/03/10 04:54:28;;;;;;;6.23;4.93;;;;;19.40;97578.00;;;;2071482;28;20214;-69
2023/03/10 04:55:28;;;;;;;6.07;4.70;;;;;19.40;97579.00;;;;2071548;28;20238;-69
2023/03/10 04:56:29;;;;;;;5.43;4.40;;;;;19.40;97577.00;;;;2071466;28;20229;-70
2023/03/10 04:57:29;;;;;;;5.93;4.70;;;;;19.40;97579.00;;;;2071501;28;20305;-70
2023/03/10 04:58:29;;;;;;;6.20;4.60;;;;;19.40;97574.00;;;;2070951;28;20710;-70
2023/03/10 04:59:30;;;;;;;6.40;4.40;;;;;19.40;97567.00;;;;2071173;28;20787;-69
2023/03/10 05:00:30;;;;;;;5.90;4.70;;;;;19.40;97576.00;;;;2071348;28;20271;-69
2023/03/10 05:01:32;;;;;;;5.70;4.60;;;;;19.40;97565.00;;;;2071409;28;20206;-69